Time;durP1;ratioP1;P1;durP2;ratioP2;P2;SDS_P1;SDS_P2;PMS_P1;PMS_P2;Temp;Humidity;BMP_temperature;BMP_pressure;BME280_temperature;BME280_humidity;BME280_pressure;Samples;Min_cycle;Max_cycle;Signal;HPM_P1;HPM_P2
2022/06/17 00:01:09;;;;;;;11.25;6.13;;;;;;;;;;5346862;27;20016;-69
2022/06/17 00:03:40;;;;;;;7.40;6.70;;;;;;;;;;5347442;27;20016;-69
2022/06/17 00:06:11;;;;;;;7.53;6.83;;;;;;;;;;5347469;27;20384;-69
2022/06/17 00:08:44;;;;;;;8.63;6.80;;;;;;;;;;5346694;27;20307;-69
2022/06/17 00:11:17;;;;;;;9.60;6.95;;;;;;;;;;5347366;27;20380;-69
2022/06/17 00:13:48;;;;;;;11.52;7.43;;;;;;;;;;5347189;27;20072;-69
2022/06/17 00:16:22;;;;;;;9.43;7.00;;;;;;;;;;5345145;27;20023;-69
2022/06/17 00:18:53;;;;;;;10.95;6.75;;;;;;;;;;5347685;27;20030;-69
2022/06/17 00:21:29;;;;;;;10.07;6.82;;;;;;;;;;5346520;27;20449;-69
2022/06/17 00:24:00;;;;;;;8.82;6.03;;;;;;;;;;5346410;27;20385;-69
2022/06/17 00:26:31;;;;;;;12.68;6.63;;;;;;;;;;5346877;27;20019;-69
2022/06/17 00:29:03;;;;;;;12.90;6.93;;;;;;;;;;5346278;27;20011;-69
2022/06/17 00:31:34;;;;;;;9.43;6.35;;;;;;;;;;5346885;27;20261;-69
2022/06/17 00:34:06;;;;;;;10.45;6.68;;;;;;;;;;5346789;27;20297;-69
2022/06/17 00:36:37;;;;;;;9.82;6.82;;;;;;;;;;5346020;27;20348;-69
2022/06/17 00:39:17;;;;;;;11.70;6.32;;;;;;;;;;5346524;27;20099;-69
2022/06/17 00:41:51;;;;;;;7.32;6.57;;;;;;;;;;5347090;27;20473;-69
2022/06/17 00:44:28;;;;;;;9.35;6.35;;;;;;;;;;5345509;27;20038;-69
2022/06/17 00:47:22;;;;;;;11.38;6.30;;;;;;;;;;5346720;27;20042;-69
2022/06/17 00:49:59;;;;;;;10.40;6.97;;;;;;;;;;5346427;27;20023;-69
2022/06/17 00:52:34;;;;;;;9.10;5.68;;;;;;;;;;5345817;27;20482;-69
2022/06/17 00:55:14;;;;;;;8.65;6.10;;;;;;;;;;5346346;27;20076;-70
2022/06/17 00:57:45;;;;;;;10.38;6.13;;;;;;;;;;5345519;27;20023;-69
2022/06/17 01:00:18;;;;;;;12.60;5.53;;;;;;;;;;5346483;27;20339;-70
2022/06/17 01:02:51;;;;;;;11.60;5.85;;;;;;;;;;5346753;27;20344;-70
2022/06/17 01:05:36;;;;;;;7.13;5.85;;;;;;;;;;5345025;27;20022;-70
2022/06/17 01:08:14;;;;;;;9.13;5.65;;;;;;;;;;5346245;27;20106;-71
2022/06/17 01:10:47;;;;;;;9.73;5.90;;;;;;;;;;5346183;27;20019;-70
2022/06/17 01:13:18;;;;;;;9.35;5.82;;;;;;;;;;5345199;27;20355;-70
2022/06/17 01:15:50;;;;;;;9.10;5.30;;;;;;;;;;5346512;27;20076;-70
2022/06/17 01:18:21;;;;;;;10.57;5.20;;;;;;;;;;5344540;27;20367;-70
2022/06/17 01:20:55;;;;;;;8.95;4.95;;;;;;;;;;5345943;27;20049;-70
2022/06/17 01:23:26;;;;;;;10.55;5.00;;;;;;;;;;5345867;27;20042;-69
2022/06/17 01:25:58;;;;;;;6.53;4.45;;;;;;;;;;5345481;27;20007;-69
2022/06/17 01:28:29;;;;;;;8.95;5.35;;;;;;;;;;5345572;27;20083;-70
2022/06/17 01:31:04;;;;;;;8.00;4.72;;;;;;;;;;5345899;27;20281;-70
2022/06/17 01:33:37;;;;;;;5.38;4.85;;;;;;;;;;5344634;27;20682;-70
2022/06/17 01:36:12;;;;;;;5.60;4.70;;;;;;;;;;5345745;27;20027;-70
2022/06/17 01:38:46;;;;;;;6.72;4.68;;;;;;;;;;5345631;27;20023;-70
2022/06/17 01:41:19;;;;;;;5.80;5.10;;;;;;;;;;5344607;27;20063;-69
2022/06/17 01:43:52;;;;;;;8.13;4.93;;;;;;;;;;5345783;27;20394;-70
2022/06/17 01:46:25;;;;;;;8.18;5.25;;;;;;;;;;5344220;27;20027;-70
2022/06/17 01:49:03;;;;;;;6.47;4.50;;;;;;;;;;5345701;27;20015;-70
2022/06/17 01:51:36;;;;;;;8.20;5.22;;;;;;;;;;5345259;27;20072;-70
2022/06/17 01:54:12;;;;;;;9.02;5.03;;;;;;;;;;5344301;27;20068;-71
2022/06/17 01:56:44;;;;;;;8.57;5.45;;;;;;;;;;5345268;27;20031;-70
2022/06/17 01:59:24;;;;;;;6.53;4.30;;;;;;;;;;5345344;27;20064;-70
2022/06/17 02:01:57;;;;;;;7.10;4.63;;;;;;;;;;5344630;27;20020;-70
2022/06/17 02:04:31;;;;;;;8.95;5.30;;;;;;;;;;5344849;27;20373;-70
2022/06/17 02:07:17;;;;;;;8.00;4.97;;;;;;;;;;5345430;27;20011;-67
2022/06/17 02:09:48;;;;;;;6.07;5.38;;;;;;;;;;5344141;27;20071;-70
2022/06/17 02:12:20;;;;;;;7.82;5.47;;;;;;;;;;5344702;27;20473;-70
2022/06/17 02:14:52;;;;;;;8.02;5.43;;;;;;;;;;5344603;27;20023;-70
2022/06/17 02:17:25;;;;;;;7.97;5.38;;;;;;;;;;5344555;27;20052;-70
2022/06/17 02:19:57;;;;;;;8.07;4.82;;;;;;;;;;5345165;27;20509;-69
2022/06/17 02:22:30;;;;;;;5.13;4.60;;;;;;;;;;5343850;27;20007;-70
2022/06/17 02:25:04;;;;;;;7.07;5.43;;;;;;;;;;5344816;27;20030;-70
2022/06/17 02:27:35;;;;;;;6.72;5.85;;;;;;;;;;5344707;27;20011;-70
2022/06/17 02:30:08;;;;;;;8.25;5.40;;;;;;;;;;5344218;27;20480;-70
2022/06/17 02:32:40;;;;;;;5.55;4.78;;;;;;;;;;5344836;27;20117;-70
2022/06/17 02:35:29;;;;;;;6.13;5.28;;;;;;;;;;5344864;27;20513;-70
2022/06/17 02:38:00;;;;;;;7.50;5.53;;;;;;;;;;5344325;28;20042;-70
2022/06/17 02:40:39;;;;;;;8.60;5.53;;;;;;;;;;5351452;27;20015;-69
2022/06/17 02:43:17;;;;;;;11.48;5.65;;;;;;;;;;5351106;27;20015;-68
2022/06/17 02:45:50;;;;;;;9.90;5.97;;;;;;;;;;5351968;27;20027;-68
2022/06/17 02:48:24;;;;;;;9.60;5.97;;;;;;;;;;5351431;27;20027;-69
2022/06/17 02:50:56;;;;;;;7.97;6.00;;;;;;;;;;5351369;27;20502;-69
2022/06/17 02:53:29;;;;;;;8.43;5.53;;;;;;;;;;5351467;27;20068;-68
2022/06/17 02:56:05;;;;;;;7.28;5.47;;;;;;;;;;5351851;27;20023;-70
2022/06/17 02:58:55;;;;;;;10.95;6.00;;;;;;;;;;5351119;27;20105;-69
2022/06/17 03:01:27;;;;;;;9.88;5.70;;;;;;;;;;5351127;27;20030;-69
2022/06/17 03:03:59;;;;;;;9.82;5.75;;;;;;;;;;5351222;27;20023;-68
2022/06/17 03:06:35;;;;;;;9.77;5.30;;;;;;;;;;5351168;27;20355;-69
2022/06/17 03:09:25;;;;;;;7.13;5.53;;;;;;;;;;5351165;27;20027;-69
2022/06/17 03:12:02;;;;;;;8.50;5.93;;;;;;;;;;5351060;27;20030;-68
2022/06/17 03:14:46;;;;;;;9.52;5.60;;;;;;;;;;5351245;27;20120;-69
2022/06/17 03:17:20;;;;;;;8.65;5.70;;;;;;;;;;5351432;27;20015;-68
2022/06/17 03:19:52;;;;;;;8.60;5.57;;;;;;;;;;5350689;27;20043;-68
2022/06/17 03:22:24;;;;;;;8.85;5.85;;;;;;;;;;5350981;27;20023;-69
2022/06/17 03:25:05;;;;;;;9.13;5.28;;;;;;;;;;5350930;27;20471;-69
2022/06/17 03:27:37;;;;;;;11.23;6.05;;;;;;;;;;5351305;27;20043;-69
2022/06/17 03:30:10;;;;;;;6.88;4.78;;;;;;;;;;5351257;27;20110;-69
2022/06/17 03:32:43;;;;;;;7.65;5.40;;;;;;;;;;5350443;27;20281;-69
2022/06/17 03:35:22;;;;;;;6.72;5.28;;;;;;;;;;5351258;27;20068;-69
2022/06/17 03:37:53;;;;;;;;;;;;;;;;;;5351915;27;20050;-69
2022/06/17 03:40:34;;;;;;;7.55;5.93;;;;;;;;;;5349878;27;20285;-68
2022/06/17 03:43:08;;;;;;;6.72;5.78;;;;;;;;;;5351293;27;20050;-69
2022/06/17 03:45:43;;;;;;;9.50;5.70;;;;;;;;;;5351187;27;20015;-68
2022/06/17 03:48:33;;;;;;;5.93;5.07;;;;;;;;;;5350326;27;20015;-69
2022/06/17 03:51:05;;;;;;;7.15;5.20;;;;;;;;;;5347681;27;20121;-69
2022/06/17 03:53:37;;;;;;;7.32;5.43;;;;;;;;;;5346684;27;20102;-69
2022/06/17 03:56:11;;;;;;;6.85;5.30;;;;;;;;;;5347642;27;20054;-69
2022/06/17 03:58:43;;;;;;;6.57;4.90;;;;;;;;;;5347594;27;20067;-70
2022/06/17 04:01:33;;;;;;;8.10;5.43;;;;;;;;;;5346667;27;20047;-69
2022/06/17 04:04:09;;;;;;;6.97;6.00;;;;;;;;;;5347486;27;20023;-69
2022/06/17 04:06:42;;;;;;;8.60;6.03;;;;;;;;;;5347577;27;20470;-69
2022/06/17 04:09:14;;;;;;;7.25;6.30;;;;;;;;;;5346654;27;20027;-69
2022/06/17 04:11:46;;;;;;;12.10;7.15;;;;;;;;;;5347252;27;20415;-69
2022/06/17 04:14:40;;;;;;;7.22;6.35;;;;;;;;;;5346422;27;20069;-69
2022/06/17 04:17:14;;;;;;;6.97;6.28;;;;;;;;;;5346565;27;20030;-69
2022/06/17 04:19:50;;;;;;;8.43;7.05;;;;;;;;;;5346692;27;20205;-68
2022/06/17 04:22:25;;;;;;;7.88;7.07;;;;;;;;;;5345879;27;20043;-69
2022/06/17 04:24:58;;;;;;;8.55;6.75;;;;;;;;;;5347383;27;20037;-69
2022/06/17 04:27:56;;;;;;;9.45;6.88;;;;;;;;;;5346664;27;20015;-69
2022/06/17 04:30:25;;;;;;;10.57;7.85;;;;;;;;;;5345538;27;20115;-69
2022/06/17 04:33:00;;;;;;;8.25;6.85;;;;;;;;;;5347315;27;20419;-69
2022/06/17 04:35:31;;;;;;;8.57;7.35;;;;;;;;;;5345971;27;20015;-69
2022/06/17 04:38:02;;;;;;;10.75;7.72;;;;;;;;;;5346928;27;20025;-69
2022/06/17 04:40:36;;;;;;;11.55;6.65;;;;;;;;;;5346655;27;20322;-69
2022/06/17 04:43:28;;;;;;;7.63;6.03;;;;;;;;;;5345804;27;20102;-69
2022/06/17 04:45:59;;;;;;;8.95;6.75;;;;;;;;;;5328880;27;20033;-69
2022/06/17 04:48:30;;;;;;;9.50;7.37;;;;;;;;;;5346305;27;20094;-69
2022/06/17 04:51:03;;;;;;;10.33;6.90;;;;;;;;;;5346314;27;20249;-69
2022/06/17 04:53:35;;;;;;;13.23;7.05;;;;;;;;;;5346223;27;20798;-69
2022/06/17 04:56:08;;;;;;;10.07;6.47;;;;;;;;;;5346361;27;20417;-69
2022/06/17 04:58:39;;;;;;;9.70;7.07;;;;;;;;;;5345716;27;20462;-69
2022/06/17 05:01:18;;;;;;;11.80;6.70;;;;;;;;;;5346473;27;20015;-69
2022/06/17 05:03:49;;;;;;;11.85;6.68;;;;;;;;;;5345410;27;20351;-69
2022/06/17 05:06:20;;;;;;;9.52;6.32;;;;;;;;;;5345662;27;20561;-69
2022/06/17 05:08:57;;;;;;;10.68;6.35;;;;;;;;;;5346672;27;20844;-69
2022/06/17 05:11:41;;;;;;;12.73;6.68;;;;;;;;;;5344836;27;20027;-70
2022/06/17 05:14:12;;;;;;;8.70;6.20;;;;;;;;;;5345724;27;20064;-69
2022/06/17 05:16:44;;;;;;;11.82;6.53;;;;;;;;;;5345973;27;20100;-69
2022/06/17 05:19:15;;;;;;;14.85;6.10;;;;;;;;;;5345148;27;20496;-69
2022/06/17 05:21:46;;;;;;;10.52;5.85;;;;;;;;;;5345413;27;20104;-69
2022/06/17 05:24:17;;;;;;;9.73;5.93;;;;;;;;;;5345533;27;20102;-70
2022/06/17 05:26:50;;;;;;;18.03;5.50;;;;;;;;;;5345266;27;20019;-70
2022/06/17 05:29:21;;;;;;;9.98;5.40;;;;;;;;;;5345510;27;20264;-70
2022/06/17 05:31:53;;;;;;;9.48;5.32;;;;;;;;;;5345103;27;20022;-71
2022/06/17 05:34:24;;;;;;;9.93;5.47;;;;;;;;;;5345245;27;20285;-72
2022/06/17 05:36:59;;;;;;;9.07;5.87;;;;;;;;;;5345819;27;20011;-70
2022/06/17 05:39:30;;;;;;;10.55;5.43;;;;;;;;;;5344760;27;20280;-69
2022/06/17 05:42:02;;;;;;;8.40;5.73;;;;;;;;;;5345428;27;20011;-70
2022/06/17 05:44:33;;;;;;;12.18;5.10;;;;;;;;;;5345409;27;20273;-69
2022/06/17 05:47:04;;;;;;;8.70;5.03;;;;;;;;;;5344667;27;20019;-69
2022/06/17 05:49:36;;;;;;;10.93;5.25;;;;;;;;;;5345124;27;20023;-69
2022/06/17 05:52:09;;;;;;;15.23;4.90;;;;;;;;;;5345094;27;20007;-69
2022/06/17 05:54:40;;;;;;;8.32;4.65;;;;;;;;;;5344475;27;20428;-70
2022/06/17 05:57:11;;;;;;;16.30;5.20;;;;;;;;;;5345280;27;20019;-68
2022/06/17 05:59:42;;;;;;;11.18;5.05;;;;;;;;;;5344568;27;20412;-68
2022/06/17 06:02:14;;;;;;;10.02;5.20;;;;;;;;;;5344988;27;20089;-68
2022/06/17 06:04:45;;;;;;;9.57;5.18;;;;;;;;;;5345257;27;20035;-68
2022/06/17 06:07:16;;;;;;;7.10;4.23;;;;;;;;;;5344454;27;20023;-69
2022/06/17 06:09:47;;;;;;;9.40;5.13;;;;;;;;;;5344916;27;20273;-68
2022/06/17 06:12:19;;;;;;;10.80;4.97;;;;;;;;;;5344499;27;20019;-69
2022/06/17 06:14:50;;;;;;;12.98;4.80;;;;;;;;;;5343700;27;20661;-68
2022/06/17 06:17:21;;;;;;;25.60;6.55;;;;;;;;;;5344748;27;20079;-69
2022/06/17 06:19:52;;;;;;;20.20;5.30;;;;;;;;;;5344787;27;20042;-68
2022/06/17 06:22:23;;;;;;;15.83;5.63;;;;;;;;;;5343768;27;20020;-70
2022/06/17 06:24:54;;;;;;;38.00;6.50;;;;;;;;;;5344790;27;20344;-71
2022/06/17 06:27:26;;;;;;;30.08;6.57;;;;;;;;;;5344191;27;20815;-68
2022/06/17 06:29:57;;;;;;;18.20;4.82;;;;;;;;;;5344080;27;20760;-69
2022/06/17 06:32:28;;;;;;;16.38;4.65;;;;;;;;;;5344286;27;20700;-70
2022/06/17 06:34:59;;;;;;;12.02;4.22;;;;;;;;;;5343935;27;20031;-70
2022/06/17 06:37:30;;;;;;;8.27;3.60;;;;;;;;;;5343985;28;20386;-70
2022/06/17 06:40:01;;;;;;;21.75;4.22;;;;;;;;;;5344671;27;20406;-69
2022/06/17 06:42:33;;;;;;;21.80;3.88;;;;;;;;;;5343517;27;20265;-69
2022/06/17 06:45:05;;;;;;;18.40;5.43;;;;;;;;;;5344473;28;20534;-70
2022/06/17 06:47:36;;;;;;;15.25;3.10;;;;;;;;;;5344033;28;20257;-69
2022/06/17 06:50:10;;;;;;;4.90;2.90;;;;;;;;;;5343392;27;20027;-70
2022/06/17 06:52:42;;;;;;;6.82;2.45;;;;;;;;;;5344153;28;20771;-70
2022/06/17 06:55:14;;;;;;;7.63;2.60;;;;;;;;;;5344343;28;20063;-70
2022/06/17 06:57:51;;;;;;;7.93;2.78;;;;;;;;;;5343913;28;20015;-71
2022/06/17 07:00:27;;;;;;;10.88;2.35;;;;;;;;;;5344092;27;20106;-69
2022/06/17 07:02:58;;;;;;;7.30;2.53;;;;;;;;;;5344271;28;20465;-70
2022/06/17 07:05:29;;;;;;;8.73;2.50;;;;;;;;;;5344079;28;20042;-70
2022/06/17 07:08:00;;;;;;;11.75;3.55;;;;;;;;;;5344437;28;20324;-69
2022/06/17 07:10:33;;;;;;;7.82;2.53;;;;;;;;;;5343103;28;20015;-70
2022/06/17 07:13:05;;;;;;;6.20;2.03;;;;;;;;;;5344130;28;20031;-69
2022/06/17 07:15:39;;;;;;;14.43;2.25;;;;;;;;;;5344458;27;20059;-70
2022/06/17 07:18:14;;;;;;;6.07;2.85;;;;;;;;;;5343513;28;20022;-70
2022/06/17 07:20:47;;;;;;;7.88;2.58;;;;;;;;;;5337434;27;20038;-70
2022/06/17 07:23:23;;;;;;;5.10;2.08;;;;;;;;;;5324254;28;20458;-71
2022/06/17 07:25:54;;;;;;;5.05;1.70;;;;;;;;;;5325299;28;20431;-70
2022/06/17 07:28:27;;;;;;;3.35;1.92;;;;;;;;;;5327194;28;20098;-71
2022/06/17 07:30:59;;;;;;;4.90;1.40;;;;;;;;;;5326528;28;20019;-71
2022/06/17 07:33:32;;;;;;;4.45;1.35;;;;;;;;;;5326013;28;20036;-69
2022/06/17 07:36:04;;;;;;;4.93;1.83;;;;;;;;;;5326590;28;20481;-69
2022/06/17 07:41:26;;;;;;;2.63;1.52;;;;;;;;;;5326144;28;20023;-72
2022/06/17 07:43:57;;;;;;;3.75;1.40;;;;;;;;;;5326719;28;20011;-72
2022/06/17 07:46:29;;;;;;;5.33;1.80;;;;;;;;;;5325209;28;20103;-69
2022/06/17 07:49:00;;;;;;;3.88;1.20;;;;;;;;;;5326827;28;20016;-70
2022/06/17 07:51:31;;;;;;;6.63;1.83;;;;;;;;;;5326340;28;20068;-71
2022/06/17 07:54:02;;;;;;;6.37;1.97;;;;;;;;;;5325563;28;20024;-69
2022/06/17 07:56:34;;;;;;;3.15;1.40;;;;;;;;;;5329523;27;20284;-68
2022/06/17 07:59:06;;;;;;;6.30;1.50;;;;;;;;;;5345440;27;20148;-69
2022/06/17 08:01:38;;;;;;;6.72;1.52;;;;;;;;;;5347146;27;20007;-69
2022/06/17 08:04:09;;;;;;;3.85;1.00;;;;;;;;;;5346815;27;20430;-69
2022/06/17 08:06:40;;;;;;;6.10;1.00;;;;;;;;;;5346203;27;20041;-69
2022/06/17 08:09:11;;;;;;;2.80;1.23;;;;;;;;;;5347293;27;20023;-68
2022/06/17 08:11:42;;;;;;;3.17;1.00;;;;;;;;;;5347836;27;20292;-72
2022/06/17 08:14:14;;;;;;;5.60;1.03;;;;;;;;;;5346841;27;20034;-69
2022/06/17 08:16:45;;;;;;;4.22;0.98;;;;;;;;;;5347387;27;20292;-69
2022/06/17 08:19:16;;;;;;;4.38;1.00;;;;;;;;;;5347316;27;20465;-70
2022/06/17 08:21:48;;;;;;;2.72;0.88;;;;;;;;;;5346411;27;20055;-69
2022/06/17 08:24:19;;;;;;;5.65;0.80;;;;;;;;;;5347187;27;20123;-69
2022/06/17 08:26:50;;;;;;;4.85;0.82;;;;;;;;;;5347307;27;20118;-69
2022/06/17 08:29:22;;;;;;;3.60;0.90;;;;;;;;;;5345911;27;20363;-70
2022/06/17 08:31:53;;;;;;;4.38;0.70;;;;;;;;;;5347432;27;20469;-70
2022/06/17 08:34:24;;;;;;;4.87;0.70;;;;;;;;;;5346017;27;20035;-70
2022/06/17 08:36:55;;;;;;;5.47;0.80;;;;;;;;;;5346784;27;20019;-70
2022/06/17 08:39:27;;;;;;;20.40;1.52;;;;;;;;;;5346859;27;20019;-70
2022/06/17 08:42:05;;;;;;;4.07;0.90;;;;;;;;;;5346538;27;20014;-69
2022/06/17 08:44:36;;;;;;;;;;;;;;;;;;5347865;27;20043;-70
2022/06/17 08:47:25;;;;;;;4.57;1.10;;;;;;;;;;5347132;27;19931;-70
2022/06/17 08:50:02;;;;;;;3.33;0.70;;;;;;;;;;5346486;27;20027;-70
2022/06/17 08:52:40;;;;;;;487.75;50.55;;;;;;;;;;5342346;27;20472;-70
2022/06/17 08:55:24;;;;;;;111.70;12.07;;;;;;;;;;5346215;27;20052;-70
2022/06/17 08:58:14;;;;;;;110.68;10.98;;;;;;;;;;5345413;27;20140;-70
2022/06/17 09:01:06;;;;;;;38.67;4.60;;;;;;;;;;5325488;27;20028;-70
2022/06/17 09:03:40;;;;;;;254.77;28.08;;;;;;;;;;5324237;28;20028;-70
2022/06/17 09:06:30;;;;;;;36.75;4.45;;;;;;;;;;5325094;28;20074;-68
2022/06/17 09:09:20;;;;;;;25.05;3.30;;;;;;;;;;5325266;28;20026;-68
2022/06/17 09:11:59;;;;;;;17.02;1.75;;;;;;;;;;5324457;28;20020;-71
2022/06/17 09:14:49;;;;;;;5.38;0.80;;;;;;;;;;5324632;28;20123;-70
2022/06/17 09:17:39;;;;;;;10.00;1.25;;;;;;;;;;5323673;28;20114;-70
2022/06/17 09:20:12;;;;;;;4.38;0.88;;;;;;;;;;5324367;28;20043;-70
2022/06/17 09:22:46;;;;;;;5.78;0.98;;;;;;;;;;5324781;28;20019;-70
2022/06/17 09:25:19;;;;;;;6.25;1.05;;;;;;;;;;5323886;28;20027;-70
2022/06/17 09:27:51;;;;;;;5.35;1.10;;;;;;;;;;5324792;28;20469;-71
2022/06/17 09:30:25;;;;;;;9.32;0.80;;;;;;;;;;5324289;28;20028;-70
2022/06/17 09:32:59;;;;;;;11.38;1.15;;;;;;;;;;5324049;28;20144;-70
2022/06/17 09:35:41;;;;;;;2.88;0.73;;;;;;;;;;5324348;28;20072;-70
2022/06/17 09:38:36;;;;;;;1.83;0.50;;;;;;;;;;5323586;28;20039;-71
2022/06/17 09:41:27;;;;;;;6.90;0.75;;;;;;;;;;5310686;28;20078;-71
2022/06/17 09:43:58;;;;;;;5.65;0.77;;;;;;;;;;5323798;28;20043;-70
2022/06/17 09:46:29;;;;;;;2.90;0.70;;;;;;;;;;5323136;28;20020;-73
2022/06/17 09:49:01;;;;;;;2.75;0.52;;;;;;;;;;5323279;28;20024;-73
2022/06/17 09:51:42;;;;;;;4.97;0.70;;;;;;;;;;5323959;28;20035;-71
2022/06/17 09:54:16;;;;;;;6.15;0.60;;;;;;;;;;5324002;28;20079;-71
2022/06/17 09:56:51;;;;;;;19.05;1.25;;;;;;;;;;5323981;28;20064;-71
2022/06/17 09:59:26;;;;;;;4.70;0.60;;;;;;;;;;5322847;28;20027;-70
2022/06/17 10:01:59;;;;;;;3.35;0.50;;;;;;;;;;5324207;28;20019;-70
2022/06/17 10:04:30;;;;;;;6.25;0.50;;;;;;;;;;5323758;28;20380;-71
2022/06/17 10:07:07;;;;;;;3.97;0.50;;;;;;;;;;5323329;28;20019;-72
2022/06/17 10:09:56;;;;;;;6.68;0.80;;;;;;;;;;5324179;28;20022;-72
2022/06/17 10:12:46;;;;;;;6.88;1.13;;;;;;;;;;5323567;28;20497;-73
2022/06/17 10:15:36;;;;;;;48.42;4.03;;;;;;;;;;5323798;28;20023;-72
2022/06/17 10:18:33;;;;;;;52.95;6.50;;;;;;;;;;5323673;28;20020;-72
2022/06/17 10:21:04;;;;;;;;;;;;;;;;;;5323369;28;20135;-70
2022/06/17 10:23:54;;;;;;;5.72;0.50;;;;;;;;;;5323478;28;19951;-71
2022/06/17 10:26:37;;;;;;;16.63;0.85;;;;;;;;;;5323369;28;20035;-71
2022/06/17 10:29:23;;;;;;;2.88;0.30;;;;;;;;;;5322842;28;20019;-71
2022/06/17 10:31:55;;;;;;;2.30;0.40;;;;;;;;;;5323765;28;20023;-72
2022/06/17 10:34:27;;;;;;;7.22;0.45;;;;;;;;;;5322345;28;20378;-72
2022/06/17 10:37:00;;;;;;;9.85;0.80;;;;;;;;;;5323781;28;20040;-72
2022/06/17 10:39:33;;;;;;;4.25;0.40;;;;;;;;;;5323569;28;20149;-72
2022/06/17 10:42:06;;;;;;;2.08;0.40;;;;;;;;;;5322547;28;20026;-71
2022/06/17 10:44:37;;;;;;;4.65;0.40;;;;;;;;;;5323577;28;20435;-70
2022/06/17 10:47:11;;;;;;;1.80;0.40;;;;;;;;;;5323493;28;20019;-71
2022/06/17 10:49:55;;;;;;;2.05;0.40;;;;;;;;;;5322680;28;20386;-70
2022/06/17 10:52:46;;;;;;;1.83;0.32;;;;;;;;;;5323031;28;20012;-70
2022/06/17 10:55:21;;;;;;;3.38;0.40;;;;;;;;;;5304571;28;20032;-70
2022/06/17 10:58:09;;;;;;;3.58;0.40;;;;;;;;;;5323016;28;20415;-71
2022/06/17 11:01:04;;;;;;;2.22;0.30;;;;;;;;;;5325119;28;20110;-71
2022/06/17 11:03:36;;;;;;;1.25;0.40;;;;;;;;;;5313350;28;20032;-71
2022/06/17 11:06:15;;;;;;;2.50;0.40;;;;;;;;;;5326188;28;20022;-71
2022/06/17 11:08:49;;;;;;;2.33;0.40;;;;;;;;;;5327089;28;20061;-70
2022/06/17 11:12:05;;;;;;;0.85;0.30;;;;;;;;;;5326701;28;20022;-71
2022/06/17 11:14:45;;;;;;;2.13;0.30;;;;;;;;;;5327337;28;20114;-71
2022/06/17 11:17:26;;;;;;;3.15;0.47;;;;;;;;;;5327068;28;20034;-71
2022/06/17 11:20:18;;;;;;;3.13;0.32;;;;;;;;;;5327528;28;20126;-70
2022/06/17 11:23:00;;;;;;;1.52;0.30;;;;;;;;;;5310414;28;20028;-70
2022/06/17 11:25:32;;;;;;;4.28;0.55;;;;;;;;;;5327091;28;20015;-70
2022/06/17 11:28:12;;;;;;;3.88;0.45;;;;;;;;;;5327160;28;20019;-70
2022/06/17 11:30:54;;;;;;;2.97;0.40;;;;;;;;;;5326484;28;20027;-70
2022/06/17 11:33:32;;;;;;;2.58;0.40;;;;;;;;;;5326608;28;20027;-70
2022/06/17 11:36:07;;;;;;;4.63;0.40;;;;;;;;;;5327260;28;20055;-70
2022/06/17 11:38:39;;;;;;;6.30;0.50;;;;;;;;;;5326452;28;20048;-70
2022/06/17 11:41:11;;;;;;;1.58;0.32;;;;;;;;;;5327105;28;20019;-70
2022/06/17 11:43:43;;;;;;;4.78;0.30;;;;;;;;;;5326667;28;20051;-70
2022/06/17 11:46:18;;;;;;;2.28;0.68;;;;;;;;;;5326106;28;20024;-70
2022/06/17 11:48:53;;;;;;;1.60;0.40;;;;;;;;;;5327338;28;20470;-71
2022/06/17 11:51:30;;;;;;;2.05;0.30;;;;;;;;;;5325621;28;20020;-71
2022/06/17 11:54:07;;;;;;;6.22;0.52;;;;;;;;;;5326678;28;20031;-70
2022/06/17 11:56:41;;;;;;;3.83;0.40;;;;;;;;;;5326735;28;20022;-71
2022/06/17 11:59:17;;;;;;;4.85;0.50;;;;;;;;;;5325862;28;20405;-70
2022/06/17 12:01:54;;;;;;;2.55;0.40;;;;;;;;;;5326609;28;20382;-71
2022/06/17 12:04:31;;;;;;;3.20;0.40;;;;;;;;;;5326104;28;20030;-71
2022/06/17 12:07:18;;;;;;;5.33;0.50;;;;;;;;;;5325967;28;20031;-70
2022/06/17 12:09:51;;;;;;;13.70;0.75;;;;;;;;;;5326671;28;20107;-71
2022/06/17 12:12:22;;;;;;;9.15;0.50;;;;;;;;;;5323990;28;20481;-71
2022/06/17 12:14:54;;;;;;;12.25;1.20;;;;;;;;;;5326766;28;20042;-70
2022/06/17 12:17:25;;;;;;;2.33;0.30;;;;;;;;;;5326088;28;20497;-70
2022/06/17 12:19:58;;;;;;;1.90;0.30;;;;;;;;;;5325384;28;20113;-71
2022/06/17 12:22:33;;;;;;;23.88;0.93;;;;;;;;;;5325861;28;20153;-71
2022/06/17 12:25:23;;;;;;;15.57;0.73;;;;;;;;;;5326070;28;20016;-71
2022/06/17 12:27:57;;;;;;;6.28;0.40;;;;;;;;;;5325723;28;20386;-71
2022/06/17 12:30:40;;;;;;;6.10;0.30;;;;;;;;;;5325676;28;20014;-70
2022/06/17 12:33:14;;;;;;;6.95;0.43;;;;;;;;;;5325736;28;20031;-71
2022/06/17 12:35:47;;;;;;;3.30;0.22;;;;;;;;;;5324935;28;20019;-71
2022/06/17 12:38:24;;;;;;;4.60;0.30;;;;;;;;;;5325512;28;20019;-71
2022/06/17 12:41:03;;;;;;;2.22;0.30;;;;;;;;;;5325355;28;20019;-70
2022/06/17 12:43:44;;;;;;;3.45;0.20;;;;;;;;;;5325390;28;20012;-70
2022/06/17 12:46:24;;;;;;;1.70;0.30;;;;;;;;;;5325571;28;20030;-70
2022/06/17 12:53:13;;;;;;;1.45;0.28;;;;;;;;;;5325127;28;20474;-70
2022/06/17 12:54:49;;;;;;;1.92;0.20;;;;;;;;;;5324960;28;20040;-70
2022/06/17 12:57:40;;;;;;;1.05;0.30;;;;;;;;;;5324832;28;20023;-70
2022/06/17 13:00:19;;;;;;;6.68;0.30;;;;;;;;;;5324565;28;20129;-71
2022/06/17 13:03:08;;;;;;;4.00;0.20;;;;;;;;;;5324647;28;20058;-70
2022/06/17 13:05:41;;;;;;;3.25;0.30;;;;;;;;;;5325409;28;20403;-71
2022/06/17 13:08:21;;;;;;;2.47;0.30;;;;;;;;;;5325059;28;20023;-71
2022/06/17 13:10:52;;;;;;;2.05;0.20;;;;;;;;;;5324614;28;20106;-70
2022/06/17 13:13:32;;;;;;;1.02;0.20;;;;;;;;;;5324457;28;20114;-70
2022/06/17 13:16:06;;;;;;;0.75;0.20;;;;;;;;;;5324411;28;20021;-71
2022/06/17 13:18:50;;;;;;;1.08;0.20;;;;;;;;;;5324848;28;20020;-70
2022/06/17 13:21:21;;;;;;;3.15;0.30;;;;;;;;;;5324191;28;20486;-71
2022/06/17 13:24:05;;;;;;;1.77;0.20;;;;;;;;;;5323956;28;20027;-70
2022/06/17 13:26:36;;;;;;;3.42;0.20;;;;;;;;;;5324732;28;20454;-71
2022/06/17 13:29:13;;;;;;;25.98;1.02;;;;;;;;;;5324720;28;20061;-71
2022/06/17 13:31:48;;;;;;;4.18;0.30;;;;;;;;;;5323757;28;20038;-71
2022/06/17 13:34:20;;;;;;;3.78;0.28;;;;;;;;;;5324098;28;20101;-71
2022/06/17 13:36:51;;;;;;;3.03;0.30;;;;;;;;;;5324139;28;20051;-71
2022/06/17 13:39:27;;;;;;;3.43;0.20;;;;;;;;;;5324089;28;20020;-71
2022/06/17 13:42:00;;;;;;;4.38;0.30;;;;;;;;;;5324753;28;20458;-70
2022/06/17 13:44:50;;;;;;;5.50;0.30;;;;;;;;;;5323598;28;20012;-71
2022/06/17 13:47:28;;;;;;;1.08;0.30;;;;;;;;;;5323945;28;20024;-71
2022/06/17 13:50:05;;;;;;;6.28;0.32;;;;;;;;;;5324729;28;20012;-70
2022/06/17 13:52:47;;;;;;;1.17;0.30;;;;;;;;;;5323180;28;20059;-71
2022/06/17 13:55:25;;;;;;;2.03;0.28;;;;;;;;;;5324101;28;20451;-71
2022/06/17 13:58:00;;;;;;;4.20;0.30;;;;;;;;;;5323774;28;20106;-71
2022/06/17 14:00:38;;;;;;;1.98;0.35;;;;;;;;;;5323816;28;20491;-71
2022/06/17 14:03:11;;;;;;;1.93;0.30;;;;;;;;;;5323707;28;20031;-71
2022/06/17 14:06:06;;;;;;;3.03;0.25;;;;;;;;;;5323205;28;20352;-70
2022/06/17 14:08:48;;;;;;;1.00;0.20;;;;;;;;;;5324138;28;20051;-71
2022/06/17 14:11:32;;;;;;;1.50;0.30;;;;;;;;;;5323615;28;20031;-71
2022/06/17 14:14:18;;;;;;;4.15;0.30;;;;;;;;;;5323171;28;20019;-71
2022/06/17 14:17:00;;;;;;;1.27;0.30;;;;;;;;;;5324453;28;20083;-71
2022/06/17 14:19:36;;;;;;;0.68;0.20;;;;;;;;;;5322896;28;20092;-71
2022/06/17 14:22:13;;;;;;;5.22;0.50;;;;;;;;;;5323467;28;20040;-71
2022/06/17 14:24:44;;;;;;;3.55;0.40;;;;;;;;;;5323726;28;20019;-71
2022/06/17 14:27:36;;;;;;;2.53;0.30;;;;;;;;;;5323049;28;20023;-71
2022/06/17 14:30:16;;;;;;;3.65;0.30;;;;;;;;;;5305787;28;20024;-71
2022/06/17 14:32:47;;;;;;;3.10;0.35;;;;;;;;;;5323803;28;20315;-70
2022/06/17 14:35:27;;;;;;;2.70;0.30;;;;;;;;;;5322061;28;20016;-71
2022/06/17 14:38:17;;;;;;;4.25;0.30;;;;;;;;;;5323847;28;20023;-71
2022/06/17 14:43:46;;;;;;;0.73;0.30;;;;;;;;;;5323559;28;20467;-71
2022/06/17 14:46:17;;;;;;;1.58;0.30;;;;;;;;;;5323701;28;20037;-70
2022/06/17 14:49:08;;;;;;;0.93;0.28;;;;;;;;;;5322747;28;20028;-71
2022/06/17 14:51:41;;;;;;;1.88;0.38;;;;;;;;;;5322492;28;20024;-71
2022/06/17 14:54:13;;;;;;;2.92;0.30;;;;;;;;;;5322575;28;20023;-72
2022/06/17 14:56:46;;;;;;;3.33;0.30;;;;;;;;;;5323541;28;20023;-71
2022/06/17 14:59:18;;;;;;;1.48;0.30;;;;;;;;;;5323417;28;20015;-70
2022/06/17 15:01:53;;;;;;;4.33;0.30;;;;;;;;;;5322667;28;20019;-71
2022/06/17 15:04:36;;;;;;;4.97;0.30;;;;;;;;;;5323074;28;20290;-71
2022/06/17 15:07:20;;;;;;;4.00;0.25;;;;;;;;;;5323385;28;20045;-71
2022/06/17 15:09:53;;;;;;;4.55;0.30;;;;;;;;;;5322652;28;20015;-71
2022/06/17 15:12:24;;;;;;;3.70;0.32;;;;;;;;;;5322840;28;20031;-70
2022/06/17 15:15:01;;;;;;;2.63;0.30;;;;;;;;;;5323802;28;20428;-71
2022/06/17 15:17:41;;;;;;;1.50;0.20;;;;;;;;;;5322537;28;20099;-71
2022/06/17 15:20:23;;;;;;;1.35;0.30;;;;;;;;;;5322718;28;20090;-71
2022/06/17 15:22:57;;;;;;;2.70;0.30;;;;;;;;;;5323026;28;20427;-71
2022/06/17 15:25:42;;;;;;;1.50;0.30;;;;;;;;;;5322974;28;20651;-70
2022/06/17 15:28:21;;;;;;;2.25;0.30;;;;;;;;;;5323157;28;20077;-71
2022/06/17 15:30:52;;;;;;;1.63;0.30;;;;;;;;;;5322563;28;20336;-70
2022/06/17 15:33:25;;;;;;;3.30;0.40;;;;;;;;;;5322792;28;20032;-71
2022/06/17 15:36:01;;;;;;;5.47;0.40;;;;;;;;;;5323314;28;20027;-70
2022/06/17 15:38:33;;;;;;;2.63;0.60;;;;;;;;;;5322525;28;20363;-70
2022/06/17 15:41:23;;;;;;;2.35;0.30;;;;;;;;;;5323102;28;20028;-70